Flight Track Log - Related Links

Times and Time Zones

All times are in EDT time to prevent confusion due to time zone crossing. See the AMX169 flight status page for this flight to view local times or setup timezone preferences in your user account.

Time Position Orientation Groundspeed Altitude Reporting Facility
EDT Latitude Longitude Course Direction KTS MPH feet Rate Location/Type
Sat 08:12:13 AM 24.7690 -107.4720 284° West 22 25  Level FlightAware ADS-B
Sat 08:12:41 AM 24.7680 -107.4730 222° Southwest 27 31 79 Level FlightAware ADS-B
Sat 08:13:09 AM 24.7660 -107.4740 204° Southwest 17 20 87 Level FlightAware ADS-B
Sat 08:13:37 AM 24.7640 -107.4760 222° Southwest 20 23 97 Level FlightAware ADS-B
Sat 08:14:01 AM 24.7620 -107.4770 204° Southwest 20 23 109 Level FlightAware ADS-B
Sat 08:14:29 AM 24.7600 -107.4790 222° Southwest 21 24 122 Level FlightAware ADS-B
Sat 08:14:53 AM 24.7580 -107.4800 204° Southwest 21 24 143 Level FlightAware ADS-B
Sat 08:15:08 AM 24.7570 -107.4810 222° Southwest 33 38 167 Level FlightAware ADS-B
Sat 08:16:53 AM 24.7610 -107.4780 123° Southeast 105 121 186 Level FlightAware ADS-B
Sat 08:17:00 AM 24.6477 -107.2937 123° Southeast  Level Estimated
Sat 08:17:17 AM 24.7750 -107.4680 33° Northeast 165 190 400  Level FlightAware ADS-B
Sat 08:17:49 AM 24.7950 -107.4550 31° Northeast 172 198 1,600 1,700 Climbing FlightAware ADS-B
Sat 08:18:17 AM 24.8160 -107.4390 35° Northeast 219 252 2,100 1,500 Climbing FlightAware ADS-B
Sat 08:18:45 AM 24.8450 -107.4200 31° Northeast 261 300 3,000 2,464 Climbing FlightAware ADS-B
Sat 08:19:13 AM 24.8720 -107.3990 35° Northeast 270 311 4,400 3,000 Climbing FlightAware ADS-B
Sat 08:19:25 AM 24.8790 -107.3840 63° Northeast 272 313 5,000 3,000 Climbing FlightAware ADS-B
Sat 08:19:35 AM 24.8810 -107.3710 80° East 275 316 5,500 3,136 Climbing FlightAware ADS-B
Sat 08:20:09 AM 24.8600 -107.3290 119° Southeast 283 326 7,300 3,000 Climbing FlightAware ADS-B
Sat 08:20:33 AM 24.8340 -107.3120 149° Southeast 288 331 8,400 2,885 Climbing FlightAware ADS-B
Sat 08:21:01 AM 24.7980 -107.2980 161° South 289 333 9,800 2,215 Climbing FlightAware ADS-B
Sat 08:21:38 AM 24.7470 -107.2950 177° South 326 375 10,800 1,851 Climbing FlightAware ADS-B
Sat 08:22:35 AM 24.6590 -107.2820 172° South 352 405 12,700 2,219 Climbing FlightAware ADS-B
Sat 08:22:51 AM 24.6420 -107.2600 130° Southeast 350 403 13,500 2,945 Climbing FlightAware ADS-B
Sat 08:23:30 AM 24.6090 -107.2010 122° Southeast 355 409 15,400 2,786 Climbing FlightAware ADS-B
Sat 08:24:15 AM 24.5690 -107.1310 122° Southeast 366 421 17,400 2,667 Climbing FlightAware ADS-B
Sat 08:24:51 AM 24.5360 -107.0730 122° Southeast 371 427 19,000 2,415 Climbing FlightAware ADS-B
Sat 08:25:37 AM 24.4940 -106.9990 122° Southeast 386 444 20,700 2,133 Climbing FlightAware ADS-B
Sat 08:26:21 AM 24.4520 -106.9250 122° Southeast 399 459 22,200 1,929 Climbing FlightAware ADS-B
Sat 08:27:01 AM 24.4120 -106.8540 122° Southeast 410 472 23,400 1,875 Climbing FlightAware ADS-B
Sat 08:27:41 AM 24.3710 -106.7810 122° Southeast 420 483 24,700 1,800 Climbing FlightAware ADS-B
Sat 08:28:21 AM 24.3290 -106.7090 123° Southeast 426 490 25,800 1,674 Climbing FlightAware ADS-B
Sat 08:29:07 AM 24.2810 -106.6240 122° Southeast 435 501 27,100 1,533 Climbing FlightAware ADS-B
Sat 08:29:51 AM 24.2330 -106.5410 122° Southeast 445 512 28,100 1,357 Climbing FlightAware ADS-B
Sat 08:30:31 AM 24.1890 -106.4640 122° Southeast 455 524 29,000 1,275 Climbing FlightAware ADS-B
Sat 08:31:11 AM 24.1440 -106.3860 122° Southeast 462 532 29,800 1,357 Climbing FlightAware ADS-B
Sat 08:31:55 AM 24.0930 -106.2970 122° Southeast 465 535 30,900 1,714 Climbing FlightAware ADS-B
Sat 08:32:35 AM 24.0490 -106.2190 122° Southeast 460 529 32,200 1,737 Climbing FlightAware ADS-B
Sat 08:33:11 AM 24.0070 -106.1470 123° Southeast 461 531 33,100 1,342 Climbing FlightAware ADS-B
Sat 08:33:51 AM 23.9620 -106.0680 122° Southeast 464 534 33,900 1,275 Climbing FlightAware ADS-B
Sat 08:34:31 AM 23.9170 -105.9910 123° Southeast 465 535 34,800 1,380 Climbing FlightAware ADS-B
Sat 08:35:31 AM 23.8470 -105.8710 123° Southeast 463 533 36,200 1,380 Climbing FlightAware ADS-B
Sat 08:36:11 AM 23.8010 -105.7920 122° Southeast 460 529 37,100 1,286 Climbing FlightAware ADS-B
Sat 08:36:55 AM 23.7520 -105.7060 122° Southeast 456 525 38,000 1,159 Climbing FlightAware ADS-B
Sat 08:37:39 AM 23.7020 -105.6210 123° Southeast 454 522 38,800 714 Climbing FlightAware ADS-B
Sat 08:38:19 AM 23.6560 -105.5420 122° Southeast 456 525 39,000 150 Climbing FlightAware ADS-B
Sat 08:38:59 AM 23.6110 -105.4660 123° Southeast 457 526 39,000  Level FlightAware ADS-B
Sat 08:39:58 AM 23.5520 -105.3630 122° Southeast 446 513 39,000  Level FlightAware ADS-B
Sat 08:40:34 AM 23.5180 -105.3050 123° Southeast 446 513 39,000  Level FlightAware ADS-B
Sat 08:41:23 AM 23.4730 -105.2250 122° Southeast 446 513 39,000  Level FlightAware ADS-B
Sat 08:41:59 AM 23.4390 -105.1670 123° Southeast 446 513 39,000  Level FlightAware ADS-B
Sat 08:42:35 AM 23.4060 -105.1090 122° Southeast 446 513 39,000  Level FlightAware ADS-B
Sat 08:43:35 AM 23.3500 -105.0110 122° Southeast 446 513 39,000  Level FlightAware ADS-B
Sat 08:44:11 AM 23.3170 -104.9530 122° Southeast 446 513 39,000  Level FlightAware ADS-B
Sat 08:44:59 AM 23.2720 -104.8750 122° Southeast 446 513 39,000  Level FlightAware ADS-B
Sat 08:45:36 AM 23.2380 -104.8150 122° Southeast 446 513 39,000  Level FlightAware ADS-B
Sat 08:46:24 AM 23.1930 -104.7380 122° Southeast 446 513 39,000  Level FlightAware ADS-B
Sat 08:47:00 AM 23.1600 -104.6790 121° Southeast 446 513 39,000  Level FlightAware ADS-B
Sat 08:47:37 AM 23.1250 -104.6200 123° Southeast 446 513 39,000  Level FlightAware ADS-B
Sat 08:48:25 AM 23.0800 -104.5420 122° Southeast 446 513 39,000  Level FlightAware ADS-B
Sat 08:49:01 AM 23.0470 -104.4840 122° Southeast 446 513 39,000  Level FlightAware ADS-B
Sat 08:51:00 AM 22.9249 -104.2919 125° Southeast  Level Estimated
Sat 08:52:00 AM 22.8632 -104.1952 125° Southeast  Level Estimated
Sat 08:53:00 AM 22.8015 -104.0986 125° Southeast  Level Estimated
Sat 08:54:00 AM 22.7398 -104.0020 125° Southeast  Level Estimated
Sat 08:55:00 AM 22.6779 -103.9056 125° Southeast  Level Estimated
Sat 08:55:23 AM 22.5120 -103.6210 125° Southeast 447 514 39,000  Level FlightAware ADS-B
Sat 08:55:59 AM 22.4710 -103.5530 123° Southeast 447 514 39,000  Level FlightAware ADS-B
Sat 08:56:39 AM 22.4250 -103.4790 124° Southeast 446 513 39,000  Level FlightAware ADS-B
Sat 08:57:19 AM 22.3790 -103.4040 124° Southeast 446 513 39,000  Level FlightAware ADS-B
Sat 08:57:51 AM 22.3430 -103.3440 123° Southeast 445 512 39,000  Level FlightAware ADS-B
Sat 08:58:31 AM 22.2990 -103.2700 123° Southeast 444 511 39,000  Level FlightAware ADS-B
Sat 08:59:11 AM 22.2540 -103.1950 123° Southeast 444 511 39,000  Level FlightAware ADS-B
Sat 08:59:55 AM 22.2040 -103.1130 123° Southeast 443 510 39,000  Level FlightAware ADS-B
Sat 09:00:36 AM 22.1590 -103.0390 123° Southeast 444 511 39,000  Level FlightAware ADS-B
Sat 09:01:29 AM 22.1080 -102.9560 124° Southeast 444 511 39,000  Level FlightAware ADS-B
Sat 09:02:09 AM 22.0540 -102.8660 123° Southeast 442 509 39,000  Level FlightAware ADS-B
Sat 09:02:49 AM 22.0080 -102.7930 124° Southeast 442 509 39,000  Level FlightAware ADS-B
Sat 09:03:22 AM 21.9710 -102.7340 124° Southeast 450 518 39,000  Level FlightAware ADS-B
Sat 09:03:59 AM 21.9310 -102.6700 124° Southeast 451 519 39,000  Level FlightAware ADS-B
Sat 09:04:41 AM 21.8780 -102.5850 124° Southeast 455 524 39,000  Level FlightAware ADS-B
Sat 09:05:26 AM 21.8240 -102.4990 124° Southeast 456 525 39,000  Level FlightAware ADS-B
Sat 09:06:03 AM 21.7810 -102.4300 124° Southeast 457 526 39,000  Level FlightAware ADS-B
Sat 09:06:49 AM 21.7270 -102.3430 124° Southeast 457 526 39,000  Level FlightAware ADS-B
Sat 09:07:30 AM 21.6870 -102.2610 118° Southeast 457 526 39,000  Level FlightAware ADS-B
Sat 09:08:10 AM 21.6530 -102.1780 114° Southeast 456 525 39,000  Level FlightAware ADS-B
Sat 09:08:56 AM 21.6130 -102.0820 114° Southeast 456 525 39,000  Level FlightAware ADS-B
Sat 09:09:34 AM 21.5810 -102.0050 114° Southeast 456 525 39,000  Level FlightAware ADS-B
Sat 09:10:10 AM 21.5490 -101.9300 115° Southeast 455 524 39,000  Level FlightAware ADS-B
Sat 09:10:53 AM 21.5130 -101.8420 114° Southeast 455 524 39,000  Level FlightAware ADS-B
Sat 09:11:34 AM 21.4820 -101.7690 115° Southeast 454 522 39,000  Level FlightAware ADS-B
Sat 09:12:17 AM 21.4400 -101.6690 114° Southeast 453 521 39,000  Level FlightAware ADS-B
Sat 09:12:58 AM 21.4050 -101.5840 114° Southeast 454 522 39,000  Level FlightAware ADS-B
Sat 09:13:40 AM 21.3680 -101.4970 115° Southeast 454 522 39,000  Level FlightAware ADS-B
Sat 09:14:24 AM 21.3310 -101.4080 114° Southeast 456 525 39,000  Level FlightAware ADS-B
Sat 09:15:00 AM 21.2970 -101.3350 117° Southeast 457 526 39,000  Level FlightAware ADS-B
Sat 09:15:40 AM 21.2510 -101.2570 122° Southeast 458 527 39,000  Level FlightAware ADS-B
Sat 09:16:21 AM 21.2060 -101.1810 122° Southeast 458 527 39,000  Level FlightAware ADS-B
Sat 09:17:00 AM 21.1600 -101.1040 123° Southeast 459 528 39,000  Level FlightAware ADS-B
Sat 09:17:40 AM 21.1170 -101.0300 122° Southeast 459 528 39,000  Level FlightAware ADS-B
Sat 09:18:20 AM 21.0710 -100.9530 123° Southeast 460 529 39,000  Level FlightAware ADS-B
Sat 09:18:56 AM 21.0290 -100.8820 122° Southeast 460 529 39,000  Level FlightAware ADS-B
Sat 09:19:45 AM 20.9730 -100.7870 122° Southeast 458 527 39,000  Level FlightAware ADS-B
Sat 09:20:25 AM 20.9270 -100.7100 123° Southeast 458 527 39,000  Level FlightAware ADS-B
Sat 09:21:07 AM 20.8790 -100.6300 123° Southeast 457 526 39,000  Level FlightAware ADS-B
Sat 09:21:49 AM 20.8320 -100.5510 122° Southeast 457 526 39,000  Level FlightAware ADS-B
Sat 09:22:25 AM 20.7910 -100.4820 122° Southeast 457 526 39,000  Level FlightAware ADS-B
Sat 09:23:10 AM 20.7410 -100.4000 123° Southeast 456 525 39,000  Level FlightAware ADS-B
Sat 09:23:50 AM 20.6950 -100.3230 123° Southeast 454 522 39,000  Level FlightAware ADS-B
Sat 09:24:27 AM 20.6530 -100.2520 122° Southeast 454 522 39,000 -623 Level FlightAware ADS-B
Sat 09:25:07 AM 20.6060 -100.1780 124° Southeast 446 513 38,200 -1,037 Descending FlightAware ADS-B
Sat 09:25:48 AM 20.5580 -100.1130 128° Southeast 447 514 37,600 -2,842 Descending FlightAware ADS-B
Sat 09:26:23 AM 20.5070 -100.0460 129° Southeast 456 525 34,600 -2,929 Descending FlightAware ADS-B
Sat 09:27:12 AM 20.4480 -99.9660 128° Southeast 461 531 33,500 -680 Descending FlightAware ADS-B
Sat 09:28:00 AM 20.3950 -99.8930 128° Southeast 461 531 33,500  Level FlightAware ADS-B
Sat 09:28:37 AM 20.3540 -99.8370 128° Southeast 461 531 33,500  Level FlightAware ADS-B
Sat 09:29:25 AM 20.3000 -99.7640 128° Southeast 461 531 33,500  Level FlightAware ADS-B
Sat 09:30:01 AM 20.2600 -99.7090 128° Southeast 461 531 33,500  Level FlightAware ADS-B
Sat 09:30:49 AM 20.2060 -99.6360 128° Southeast 461 531 33,500  Level FlightAware ADS-B
Sat 09:31:25 AM 20.1660 -99.5810 128° Southeast 461 531 33,500  Level FlightAware ADS-B
Sat 09:32:02 AM 20.1250 -99.5250 128° Southeast 461 531 33,500  Level FlightAware ADS-B
Sat 09:32:50 AM 20.0710 -99.4520 128° Southeast 461 531 33,500  Level FlightAware ADS-B
Sat 09:33:26 AM 20.0310 -99.3970 128° Southeast 461 531 33,500  Level FlightAware ADS-B
Sat 09:34:15 AM 19.9760 -99.3220 128° Southeast 461 531 33,500  Level FlightAware ADS-B
Sat 09:34:51 AM 19.9360 -99.2680 128° Southeast 461 531 33,500  Level FlightAware ADS-B
Sat 09:35:39 AM 19.8820 -99.1950 128° Southeast 461 531 33,500  Level FlightAware ADS-B
Sat 09:36:13 AM 19.8450 -99.1430 127° Southeast 461 531 33,500  Level FlightAware ADS-B
Sat 09:38:00 AM 19.6543 -99.1099 171° South  Level Estimated
Sat 09:39:00 AM 19.5474 -99.0913 171° South  Level Estimated
Sat 09:40:00 AM 19.4405 -99.0728 171° South  Level Estimated
Sat 09:41:00 AM 19.4363 -99.0721 171° South  Level Estimated
Sat 09:42:00 AM 19.4363 -99.0721 43° Northeast  Level Estimated
Sat 09:43:00 AM 19.4363 -99.0721 43° Northeast  Level Estimated
Sat 09:44:00 AM 19.4363 -99.0721 43° Northeast  Level Estimated
Sat 09:45:00 AM 19.4363 -99.0721 43° Northeast  Level Estimated
Sat 09:46:00 AM 19.4363 -99.0721 43° Northeast  Level Estimated
Sat 09:47:00 AM 19.4363 -99.0721 43° Northeast  Level Estimated
Sat 09:48:00 AM 19.4363 -99.0721 43° Northeast  Level Estimated
Sat 09:49:00 AM 19.4363 -99.0721 43° Northeast  Level Estimated
Sat 09:50:00 AM 19.4363 -99.0721 43° Northeast  Level Estimated
Sat 09:51:00 AM 19.4363 -99.0721 43° Northeast  Level Estimated
Sat 09:52:00 AM 19.4363 -99.0721 43° Northeast  Level Estimated
Sat 09:53:00 AM 19.4363 -99.0721 43° Northeast  Level Estimated
Sat 09:54:00 AM 19.4363 -99.0721 43° Northeast  Level Estimated
Sat 09:55:00 AM 19.4363 -99.0721 43° Northeast  Level Estimated

Login

Don't have an account? Register now (free) for customized features, flight alerts, and more!